Edgemere, Massachusetts
Current Conditions -  °F | °C
As of 3:54 AM on Sunday 21 Dec 2014 (Local Time) from KORH Reporting Station
Overcast Overcast  
Wind Chill: 19°   Ceiling: 800
Heat Index: 27°   Visibility: 10mi
Dew Point: 24°   Wind: 7mph
Humidity: 89%   Direction: 40°NE
Pressure: 30.23"   Gusts: NA
Location:  42.2859°N, 71.7148°W
Report Text: KORH 210854Z AUTO 04006KT 10SM OVC008 M03/M04 A3023 RMK AO2 SLP251 T10281044 50000
Loading
Personal Weather Stations






























Interactive Weather Map New forecast layout! Learn more

10-Day Weather Forecast

Advertisements
Track Severe Weather on mobile